Southboro, Massachusetts
Current Conditions -  °F | °C
As of 5:56 PM on Friday 31 Oct 2014 (Local Time) from KBED Reporting Station
Broken Clouds Broken Clouds  
Wind Chill: 44°   Ceiling: 5000
Heat Index: 48°   Visibility: 10mi
Dew Point: 35°   Wind: 9mph
Humidity: 61%   Direction: 60°ENE
Pressure: 29.98"   Gusts: NA
Location:  42.3002°N, 71.5323°W
Report Text: KBED 312156Z 06008KT 10SM BKN050 09/02 A2998 RMK AO2 SLP167 T00890017
Loading
Personal Weather Stations






























Interactive Weather Map
Tropical Storm Tracking
New forecast layout! Learn more

10-Day Weather Forecast

Advertisements
Track Severe Weather on mobile